sensor_id;sensor_type;location;lat;lon;timestamp;temperature;humidity
27741;DHT22;15134;48.768;9.184;2024-01-10T00:01:42;-1.70;99.90
27741;DHT22;15134;48.768;9.184;2024-01-10T00:04:08;-1.70;99.90
27741;DHT22;15134;48.768;9.184;2024-01-10T00:06:34;-1.70;99.90
27741;DHT22;15134;48.768;9.184;2024-01-10T00:09:00;-1.70;99.90
27741;DHT22;15134;48.768;9.184;2024-01-10T00:11:25;-1.70;99.90
27741;DHT22;15134;48.768;9.184;2024-01-10T00:13:51;-1.70;99.90
27741;DHT22;15134;48.768;9.184;2024-01-10T00:16:17;-1.70;99.90
27741;DHT22;15134;48.768;9.184;2024-01-10T00:18:43;-1.70;99.90
27741;DHT22;15134;48.768;9.184;2024-01-10T00:21:09;-1.70;99.90
27741;DHT22;15134;48.768;9.184;2024-01-10T00:23:35;-1.70;99.90
27741;DHT22;15134;48.768;9.184;2024-01-10T00:26:01;-1.70;99.90
27741;DHT22;15134;48.768;9.184;2024-01-10T00:28:27;-1.70;99.90
27741;DHT22;15134;48.768;9.184;2024-01-10T00:30:52;-1.80;99.90
27741;DHT22;15134;48.768;9.184;2024-01-10T00:33:18;-1.80;99.90
27741;DHT22;15134;48.768;9.184;2024-01-10T00:35:44;-1.80;99.90
27741;DHT22;15134;48.768;9.184;2024-01-10T00:38:10;-1.90;99.90
27741;DHT22;15134;48.768;9.184;2024-01-10T00:40:36;-1.90;99.90
27741;DHT22;15134;48.768;9.184;2024-01-10T00:43:02;-1.90;99.90
27741;DHT22;15134;48.768;9.184;2024-01-10T00:45:29;-1.90;99.90
27741;DHT22;15134;48.768;9.184;2024-01-10T00:47:55;-1.90;99.90
27741;DHT22;15134;48.768;9.184;2024-01-10T00:50:20;-1.90;99.90
27741;DHT22;15134;48.768;9.184;2024-01-10T00:52:46;-1.90;99.90
27741;DHT22;15134;48.768;9.184;2024-01-10T00:55:12;-1.90;99.90
27741;DHT22;15134;48.768;9.184;2024-01-10T00:57:38;-1.90;99.90
27741;DHT22;15134;48.768;9.184;2024-01-10T01:00:08;-1.90;99.90
27741;DHT22;15134;48.768;9.184;2024-01-10T01:02:35;-1.90;99.90
27741;DHT22;15134;48.768;9.184;2024-01-10T01:05:01;-1.90;99.90
27741;DHT22;15134;48.768;9.184;2024-01-10T01:07:27;-1.90;99.90
27741;DHT22;15134;48.768;9.184;2024-01-10T01:09:53;-1.90;99.90
27741;DHT22;15134;48.768;9.184;2024-01-10T01:12:19;-1.90;99.90
27741;DHT22;15134;48.768;9.184;2024-01-10T01:14:45;-1.90;99.90
27741;DHT22;15134;48.768;9.184;2024-01-10T01:17:10;-1.80;99.90
27741;DHT22;15134;48.768;9.184;2024-01-10T01:19:36;-1.80;99.90
27741;DHT22;15134;48.768;9.184;2024-01-10T01:22:02;-1.80;99.90
27741;DHT22;15134;48.768;9.184;2024-01-10T01:24:28;-1.80;99.90
27741;DHT22;15134;48.768;9.184;2024-01-10T01:26:53;-1.90;99.90
27741;DHT22;15134;48.768;9.184;2024-01-10T01:29:20;-1.90;99.90
27741;DHT22;15134;48.768;9.184;2024-01-10T01:31:46;-2.00;99.90
27741;DHT22;15134;48.768;9.184;2024-01-10T01:34:12;-2.00;99.90
27741;DHT22;15134;48.768;9.184;2024-01-10T01:36:38;-2.00;99.90
27741;DHT22;15134;48.768;9.184;2024-01-10T01:39:03;-2.00;99.90
27741;DHT22;15134;48.768;9.184;2024-01-10T01:41:29;-1.90;99.90
27741;DHT22;15134;48.768;9.184;2024-01-10T01:43:55;-1.80;99.90
27741;DHT22;15134;48.768;9.184;2024-01-10T01:46:22;-1.90;99.90
27741;DHT22;15134;48.768;9.184;2024-01-10T01:48:48;-1.80;99.90
27741;DHT22;15134;48.768;9.184;2024-01-10T01:51:15;-1.90;99.90
27741;DHT22;15134;48.768;9.184;2024-01-10T01:53:44;-1.90;99.90
27741;DHT22;15134;48.768;9.184;2024-01-10T01:56:11;-1.90;99.90
27741;DHT22;15134;48.768;9.184;2024-01-10T01:58:39;-1.80;99.90
27741;DHT22;15134;48.768;9.184;2024-01-10T02:01:05;-1.80;99.90
27741;DHT22;15134;48.768;9.184;2024-01-10T02:03:32;-1.70;99.90
27741;DHT22;15134;48.768;9.184;2024-01-10T02:06:01;-1.70;99.90
27741;DHT22;15134;48.768;9.184;2024-01-10T02:08:34;-1.80;99.90
27741;DHT22;15134;48.768;9.184;2024-01-10T02:11:03;-1.70;99.90
27741;DHT22;15134;48.768;9.184;2024-01-10T02:13:31;-1.70;99.90
27741;DHT22;15134;48.768;9.184;2024-01-10T02:15:58;-1.80;99.90
27741;DHT22;15134;48.768;9.184;2024-01-10T02:18:24;-1.80;99.90
27741;DHT22;15134;48.768;9.184;2024-01-10T02:20:50;-1.90;99.90
27741;DHT22;15134;48.768;9.184;2024-01-10T02:23:17;-1.90;99.90
27741;DHT22;15134;48.768;9.184;2024-01-10T02:25:43;-1.90;99.90
27741;DHT22;15134;48.768;9.184;2024-01-10T02:28:09;-1.90;99.90
27741;DHT22;15134;48.768;9.184;2024-01-10T02:30:35;-1.90;99.90
27741;DHT22;15134;48.768;9.184;2024-01-10T02:33:01;-2.00;99.90
27741;DHT22;15134;48.768;9.184;2024-01-10T02:35:27;-2.00;99.90
27741;DHT22;15134;48.768;9.184;2024-01-10T02:37:53;-2.00;99.90
27741;DHT22;15134;48.768;9.184;2024-01-10T02:40:20;-2.10;99.90
27741;DHT22;15134;48.768;9.184;2024-01-10T02:42:46;-2.10;99.90
27741;DHT22;15134;48.768;9.184;2024-01-10T02:45:12;-2.10;99.90
27741;DHT22;15134;48.768;9.184;2024-01-10T02:47:38;-2.10;99.90
27741;DHT22;15134;48.768;9.184;2024-01-10T02:50:06;-2.10;99.90
27741;DHT22;15134;48.768;9.184;2024-01-10T02:52:32;-2.10;99.90
27741;DHT22;15134;48.768;9.184;2024-01-10T02:54:57;-2.00;99.90
27741;DHT22;15134;48.768;9.184;2024-01-10T02:57:23;-2.00;99.90
27741;DHT22;15134;48.768;9.184;2024-01-10T02:59:49;-2.00;99.90
27741;DHT22;15134;48.768;9.184;2024-01-10T03:02:15;-2.00;99.90
27741;DHT22;15134;48.768;9.184;2024-01-10T03:04:41;-2.00;99.90
27741;DHT22;15134;48.768;9.184;2024-01-10T03:07:07;-2.00;99.90
27741;DHT22;15134;48.768;9.184;2024-01-10T03:09:33;-2.00;99.90
27741;DHT22;15134;48.768;9.184;2024-01-10T03:11:59;-1.90;99.90
27741;DHT22;15134;48.768;9.184;2024-01-10T03:14:24;-1.80;99.90
27741;DHT22;15134;48.768;9.184;2024-01-10T03:16:50;-1.80;99.90
27741;DHT22;15134;48.768;9.184;2024-01-10T03:19:16;-1.80;99.90
27741;DHT22;15134;48.768;9.184;2024-01-10T03:21:42;-1.80;99.90
27741;DHT22;15134;48.768;9.184;2024-01-10T03:24:07;-1.70;99.90
27741;DHT22;15134;48.768;9.184;2024-01-10T03:26:33;-1.70;99.90
27741;DHT22;15134;48.768;9.184;2024-01-10T03:28:59;-1.60;99.90
27741;DHT22;15134;48.768;9.184;2024-01-10T03:31:27;-1.60;99.90
27741;DHT22;15134;48.768;9.184;2024-01-10T03:33:56;-1.60;99.90
27741;DHT22;15134;48.768;9.184;2024-01-10T03:36:22;-1.60;99.90
27741;DHT22;15134;48.768;9.184;2024-01-10T03:38:47;-1.60;99.90
27741;DHT22;15134;48.768;9.184;2024-01-10T03:41:17;-1.60;99.90
27741;DHT22;15134;48.768;9.184;2024-01-10T03:43:44;-1.50;99.90
27741;DHT22;15134;48.768;9.184;2024-01-10T03:46:11;-1.50;99.90
27741;DHT22;15134;48.768;9.184;2024-01-10T03:48:37;-1.50;99.90
27741;DHT22;15134;48.768;9.184;2024-01-10T03:51:03;-1.50;99.90
27741;DHT22;15134;48.768;9.184;2024-01-10T03:53:30;-1.50;99.90
27741;DHT22;15134;48.768;9.184;2024-01-10T03:55:56;-1.50;99.90
27741;DHT22;15134;48.768;9.184;2024-01-10T03:58:23;-1.60;99.90
27741;DHT22;15134;48.768;9.184;2024-01-10T04:00:49;-1.60;99.90
27741;DHT22;15134;48.768;9.184;2024-01-10T04:03:15;-1.50;99.90
27741;DHT22;15134;48.768;9.184;2024-01-10T04:05:42;-1.50;99.90
27741;DHT22;15134;48.768;9.184;2024-01-10T04:08:07;-1.50;99.90
27741;DHT22;15134;48.768;9.184;2024-01-10T04:10:33;-1.40;99.90
27741;DHT22;15134;48.768;9.184;2024-01-10T04:12:59;-1.40;99.90
27741;DHT22;15134;48.768;9.184;2024-01-10T04:15:24;-1.40;99.90
27741;DHT22;15134;48.768;9.184;2024-01-10T04:17:50;-1.50;99.90
27741;DHT22;15134;48.768;9.184;2024-01-10T04:20:16;-1.50;99.90
27741;DHT22;15134;48.768;9.184;2024-01-10T04:22:42;-1.50;99.90
27741;DHT22;15134;48.768;9.184;2024-01-10T04:25:08;-1.50;99.90
27741;DHT22;15134;48.768;9.184;2024-01-10T04:27:33;-1.50;99.90
27741;DHT22;15134;48.768;9.184;2024-01-10T04:29:59;-1.50;99.90
27741;DHT22;15134;48.768;9.184;2024-01-10T04:32:25;-1.50;99.90
27741;DHT22;15134;48.768;9.184;2024-01-10T04:34:51;-1.50;99.90
27741;DHT22;15134;48.768;9.184;2024-01-10T04:37:16;-1.50;99.90
27741;DHT22;15134;48.768;9.184;2024-01-10T04:39:42;-1.40;99.90
27741;DHT22;15134;48.768;9.184;2024-01-10T04:42:10;-1.40;99.90
27741;DHT22;15134;48.768;9.184;2024-01-10T04:44:36;-1.30;99.90
27741;DHT22;15134;48.768;9.184;2024-01-10T04:47:02;-1.30;99.90
27741;DHT22;15134;48.768;9.184;2024-01-10T04:49:28;-1.30;99.90
27741;DHT22;15134;48.768;9.184;2024-01-10T04:51:54;-1.30;99.90
27741;DHT22;15134;48.768;9.184;2024-01-10T04:54:20;-1.30;99.90
27741;DHT22;15134;48.768;9.184;2024-01-10T04:56:46;-1.30;99.90
27741;DHT22;15134;48.768;9.184;2024-01-10T04:59:12;-1.30;99.90
27741;DHT22;15134;48.768;9.184;2024-01-10T05:01:37;-1.30;99.90
27741;DHT22;15134;48.768;9.184;2024-01-10T05:04:03;-1.30;99.90
27741;DHT22;15134;48.768;9.184;2024-01-10T05:06:29;-1.30;99.90
27741;DHT22;15134;48.768;9.184;2024-01-10T05:08:55;-1.30;99.90
27741;DHT22;15134;48.768;9.184;2024-01-10T05:11:24;-1.30;99.90
27741;DHT22;15134;48.768;9.184;2024-01-10T05:13:53;-1.30;99.90
27741;DHT22;15134;48.768;9.184;2024-01-10T05:16:19;-1.40;99.90
27741;DHT22;15134;48.768;9.184;2024-01-10T05:18:44;-1.50;99.90
27741;DHT22;15134;48.768;9.184;2024-01-10T05:21:10;-1.50;99.90
27741;DHT22;15134;48.768;9.184;2024-01-10T05:23:36;-1.50;99.90
27741;DHT22;15134;48.768;9.184;2024-01-10T05:26:04;-1.60;99.90
27741;DHT22;15134;48.768;9.184;2024-01-10T05:28:30;-1.60;99.90
27741;DHT22;15134;48.768;9.184;2024-01-10T05:30:56;-1.60;99.90
27741;DHT22;15134;48.768;9.184;2024-01-10T05:33:24;-1.60;99.90
27741;DHT22;15134;48.768;9.184;2024-01-10T05:35:50;-1.60;99.90
27741;DHT22;15134;48.768;9.184;2024-01-10T05:38:15;-1.60;99.90
27741;DHT22;15134;48.768;9.184;2024-01-10T05:40:41;-1.60;99.90
27741;DHT22;15134;48.768;9.184;2024-01-10T05:43:07;-1.60;99.90
27741;DHT22;15134;48.768;9.184;2024-01-10T05:45:33;-1.60;99.90
27741;DHT22;15134;48.768;9.184;2024-01-10T05:47:59;-1.70;99.90
27741;DHT22;15134;48.768;9.184;2024-01-10T05:50:25;-1.80;99.90
27741;DHT22;15134;48.768;9.184;2024-01-10T05:52:50;-1.70;99.90
27741;DHT22;15134;48.768;9.184;2024-01-10T05:55:16;-1.70;99.90
27741;DHT22;15134;48.768;9.184;2024-01-10T05:57:42;-1.60;99.90
27741;DHT22;15134;48.768;9.184;2024-01-10T06:00:08;-1.60;99.90
27741;DHT22;15134;48.768;9.184;2024-01-10T06:02:41;-1.60;99.90
27741;DHT22;15134;48.768;9.184;2024-01-10T06:05:10;-1.60;99.90
27741;DHT22;15134;48.768;9.184;2024-01-10T06:07:40;-1.60;99.90
27741;DHT22;15134;48.768;9.184;2024-01-10T06:10:08;-1.60;99.90
27741;DHT22;15134;48.768;9.184;2024-01-10T06:12:35;-1.60;99.90
27741;DHT22;15134;48.768;9.184;2024-01-10T06:15:01;-1.60;99.90
27741;DHT22;15134;48.768;9.184;2024-01-10T06:17:27;-1.60;99.90
27741;DHT22;15134;48.768;9.184;2024-01-10T06:19:52;-1.60;99.90
27741;DHT22;15134;48.768;9.184;2024-01-10T06:22:18;-1.60;99.90
27741;DHT22;15134;48.768;9.184;2024-01-10T06:24:44;-1.60;99.90
27741;DHT22;15134;48.768;9.184;2024-01-10T06:27:10;-1.80;99.90
27741;DHT22;15134;48.768;9.184;2024-01-10T06:29:36;-1.90;99.90
27741;DHT22;15134;48.768;9.184;2024-01-10T06:32:05;-1.90;99.90
27741;DHT22;15134;48.768;9.184;2024-01-10T06:34:32;-2.00;99.90
27741;DHT22;15134;48.768;9.184;2024-01-10T06:36:58;-2.00;99.90
27741;DHT22;15134;48.768;9.184;2024-01-10T06:39:24;-2.00;99.90
27741;DHT22;15134;48.768;9.184;2024-01-10T06:41:50;-2.00;99.90
27741;DHT22;15134;48.768;9.184;2024-01-10T06:44:16;-2.00;99.90
27741;DHT22;15134;48.768;9.184;2024-01-10T06:46:43;-2.00;99.90
27741;DHT22;15134;48.768;9.184;2024-01-10T06:49:10;-2.00;99.90
27741;DHT22;15134;48.768;9.184;2024-01-10T06:51:35;-1.90;99.90
27741;DHT22;15134;48.768;9.184;2024-01-10T06:54:01;-2.00;99.90
27741;DHT22;15134;48.768;9.184;2024-01-10T06:56:30;-2.00;99.90
27741;DHT22;15134;48.768;9.184;2024-01-10T06:58:57;-2.00;99.90
27741;DHT22;15134;48.768;9.184;2024-01-10T07:01:23;-2.10;99.90
27741;DHT22;15134;48.768;9.184;2024-01-10T07:03:49;-2.10;99.90
27741;DHT22;15134;48.768;9.184;2024-01-10T07:06:15;-2.20;99.90
27741;DHT22;15134;48.768;9.184;2024-01-10T07:08:41;-2.20;99.90
27741;DHT22;15134;48.768;9.184;2024-01-10T07:11:11;-2.30;99.90
27741;DHT22;15134;48.768;9.184;2024-01-10T07:13:40;-2.30;99.90
27741;DHT22;15134;48.768;9.184;2024-01-10T07:16:06;-2.30;99.90
27741;DHT22;15134;48.768;9.184;2024-01-10T07:18:32;-2.20;99.90
27741;DHT22;15134;48.768;9.184;2024-01-10T07:20:58;-2.20;99.90
27741;DHT22;15134;48.768;9.184;2024-01-10T07:23:24;-2.10;99.90
27741;DHT22;15134;48.768;9.184;2024-01-10T07:25:50;-2.10;99.90
27741;DHT22;15134;48.768;9.184;2024-01-10T07:28:16;-2.10;99.90
27741;DHT22;15134;48.768;9.184;2024-01-10T07:30:42;-2.10;99.90
27741;DHT22;15134;48.768;9.184;2024-01-10T07:33:07;-2.10;99.90
27741;DHT22;15134;48.768;9.184;2024-01-10T07:35:33;-2.10;99.90
27741;DHT22;15134;48.768;9.184;2024-01-10T07:37:59;-2.10;99.90
27741;DHT22;15134;48.768;9.184;2024-01-10T07:40:25;-2.10;99.90
27741;DHT22;15134;48.768;9.184;2024-01-10T07:42:50;-2.10;99.90
27741;DHT22;15134;48.768;9.184;2024-01-10T07:45:16;-2.00;99.90
27741;DHT22;15134;48.768;9.184;2024-01-10T07:47:42;-2.00;99.90
27741;DHT22;15134;48.768;9.184;2024-01-10T07:50:09;-2.00;99.90
27741;DHT22;15134;48.768;9.184;2024-01-10T07:52:36;-1.90;99.90
27741;DHT22;15134;48.768;9.184;2024-01-10T07:55:02;-1.90;99.90
27741;DHT22;15134;48.768;9.184;2024-01-10T07:57:35;-1.80;99.90
27741;DHT22;15134;48.768;9.184;2024-01-10T08:00:05;-1.80;99.90
27741;DHT22;15134;48.768;9.184;2024-01-10T08:02:38;-1.70;99.90
27741;DHT22;15134;48.768;9.184;2024-01-10T08:05:06;-1.70;99.90
27741;DHT22;15134;48.768;9.184;2024-01-10T08:07:35;-1.60;99.90
27741;DHT22;15134;48.768;9.184;2024-01-10T08:10:06;-1.60;99.90
27741;DHT22;15134;48.768;9.184;2024-01-10T08:12:32;-1.50;99.90
27741;DHT22;15134;48.768;9.184;2024-01-10T08:14:58;-1.40;99.90
27741;DHT22;15134;48.768;9.184;2024-01-10T08:17:24;-1.40;99.90
27741;DHT22;15134;48.768;9.184;2024-01-10T08:19:49;-1.30;99.90
27741;DHT22;15134;48.768;9.184;2024-01-10T08:22:15;-1.20;99.90
27741;DHT22;15134;48.768;9.184;2024-01-10T08:24:41;-1.20;99.90
27741;DHT22;15134;48.768;9.184;2024-01-10T08:27:07;-1.20;99.90
27741;DHT22;15134;48.768;9.184;2024-01-10T08:29:33;-1.10;99.90
27741;DHT22;15134;48.768;9.184;2024-01-10T08:31:59;-1.00;99.90
27741;DHT22;15134;48.768;9.184;2024-01-10T08:34:25;-0.90;99.90
27741;DHT22;15134;48.768;9.184;2024-01-10T08:36:51;-0.70;99.90
27741;DHT22;15134;48.768;9.184;2024-01-10T08:39:17;-0.70;99.90
27741;DHT22;15134;48.768;9.184;2024-01-10T08:41:43;-0.60;99.90
27741;DHT22;15134;48.768;9.184;2024-01-10T08:44:10;-0.60;99.90
27741;DHT22;15134;48.768;9.184;2024-01-10T08:46:36;-0.60;99.90
27741;DHT22;15134;48.768;9.184;2024-01-10T08:49:02;-0.70;99.90
27741;DHT22;15134;48.768;9.184;2024-01-10T08:51:28;-0.70;99.90
27741;DHT22;15134;48.768;9.184;2024-01-10T08:53:54;-0.80;99.90
27741;DHT22;15134;48.768;9.184;2024-01-10T08:56:19;-0.80;99.90
27741;DHT22;15134;48.768;9.184;2024-01-10T08:58:46;-0.80;99.90
27741;DHT22;15134;48.768;9.184;2024-01-10T09:01:11;-0.80;99.90
27741;DHT22;15134;48.768;9.184;2024-01-10T09:03:37;-0.80;99.90
27741;DHT22;15134;48.768;9.184;2024-01-10T09:06:04;-0.90;99.90
27741;DHT22;15134;48.768;9.184;2024-01-10T09:08:30;-0.90;99.90
27741;DHT22;15134;48.768;9.184;2024-01-10T09:10:56;-0.90;99.90
27741;DHT22;15134;48.768;9.184;2024-01-10T09:13:21;-0.90;99.90
27741;DHT22;15134;48.768;9.184;2024-01-10T09:15:47;-1.00;99.90
27741;DHT22;15134;48.768;9.184;2024-01-10T09:18:13;-1.00;99.90
27741;DHT22;15134;48.768;9.184;2024-01-10T09:20:39;-1.00;99.90
27741;DHT22;15134;48.768;9.184;2024-01-10T09:23:04;-1.00;99.90
27741;DHT22;15134;48.768;9.184;2024-01-10T09:25:30;-1.00;99.90
27741;DHT22;15134;48.768;9.184;2024-01-10T09:27:56;-1.00;99.90
27741;DHT22;15134;48.768;9.184;2024-01-10T09:30:21;-1.00;99.90
27741;DHT22;15134;48.768;9.184;2024-01-10T09:32:49;-1.00;99.90
27741;DHT22;15134;48.768;9.184;2024-01-10T09:35:15;-1.00;99.90
27741;DHT22;15134;48.768;9.184;2024-01-10T09:37:41;-1.00;99.90
27741;DHT22;15134;48.768;9.184;2024-01-10T09:40:07;-0.90;99.90
27741;DHT22;15134;48.768;9.184;2024-01-10T09:42:34;-0.90;99.90
27741;DHT22;15134;48.768;9.184;2024-01-10T09:45:04;-0.90;99.90
27741;DHT22;15134;48.768;9.184;2024-01-10T09:47:32;-0.90;99.90
27741;DHT22;15134;48.768;9.184;2024-01-10T09:49:58;-0.90;99.90
27741;DHT22;15134;48.768;9.184;2024-01-10T09:52:27;-0.90;99.90
27741;DHT22;15134;48.768;9.184;2024-01-10T09:54:57;-0.90;99.90
27741;DHT22;15134;48.768;9.184;2024-01-10T09:57:26;-0.90;99.90
27741;DHT22;15134;48.768;9.184;2024-01-10T09:59:53;-0.90;99.90
27741;DHT22;15134;48.768;9.184;2024-01-10T10:02:23;-0.90;99.90
27741;DHT22;15134;48.768;9.184;2024-01-10T10:05:16;-0.90;99.90
27741;DHT22;15134;48.768;9.184;2024-01-10T10:07:46;-0.80;99.90
27741;DHT22;15134;48.768;9.184;2024-01-10T10:10:11;-0.80;99.90
27741;DHT22;15134;48.768;9.184;2024-01-10T10:12:45;-0.70;99.90
27741;DHT22;15134;48.768;9.184;2024-01-10T10:15:17;-0.70;99.90
27741;DHT22;15134;48.768;9.184;2024-01-10T10:17:45;-0.70;99.90
27741;DHT22;15134;48.768;9.184;2024-01-10T10:23:06;-0.70;99.90
27741;DHT22;15134;48.768;9.184;2024-01-10T10:25:36;-0.70;99.90
27741;DHT22;15134;48.768;9.184;2024-01-10T10:28:07;-0.60;99.90
27741;DHT22;15134;48.768;9.184;2024-01-10T10:30:36;-0.50;99.90
27741;DHT22;15134;48.768;9.184;2024-01-10T10:33:03;-0.30;99.90
27741;DHT22;15134;48.768;9.184;2024-01-10T10:35:29;-0.30;99.90
27741;DHT22;15134;48.768;9.184;2024-01-10T10:37:55;-0.20;99.90
27741;DHT22;15134;48.768;9.184;2024-01-10T10:40:21;-0.20;99.90
27741;DHT22;15134;48.768;9.184;2024-01-10T10:42:49;-0.20;99.90
27741;DHT22;15134;48.768;9.184;2024-01-10T10:45:21;-0.20;99.90
27741;DHT22;15134;48.768;9.184;2024-01-10T10:47:57;-0.10;99.90
27741;DHT22;15134;48.768;9.184;2024-01-10T10:50:24;-0.10;99.90
27741;DHT22;15134;48.768;9.184;2024-01-10T10:52:51;-0.10;99.90
27741;DHT22;15134;48.768;9.184;2024-01-10T10:55:19;0.00;99.90
27741;DHT22;15134;48.768;9.184;2024-01-10T10:57:47;-0.10;99.90
27741;DHT22;15134;48.768;9.184;2024-01-10T11:00:17;-0.10;99.90
27741;DHT22;15134;48.768;9.184;2024-01-10T11:02:42;-0.10;99.90
27741;DHT22;15134;48.768;9.184;2024-01-10T11:05:09;0.00;99.90
27741;DHT22;15134;48.768;9.184;2024-01-10T11:07:41;0.10;99.90
27741;DHT22;15134;48.768;9.184;2024-01-10T11:10:14;0.30;99.90
27741;DHT22;15134;48.768;9.184;2024-01-10T11:13:08;0.50;99.90
27741;DHT22;15134;48.768;9.184;2024-01-10T11:24:13;0.80;99.90
27741;DHT22;15134;48.768;9.184;2024-01-10T11:26:40;0.80;99.90
27741;DHT22;15134;48.768;9.184;2024-01-10T11:29:06;0.90;99.90
27741;DHT22;15134;48.768;9.184;2024-01-10T11:31:32;1.00;99.90
27741;DHT22;15134;48.768;9.184;2024-01-10T11:34:00;1.20;99.90
27741;DHT22;15134;48.768;9.184;2024-01-10T11:36:26;1.30;99.90
27741;DHT22;15134;48.768;9.184;2024-01-10T11:41:32;1.30;99.90
27741;DHT22;15134;48.768;9.184;2024-01-10T11:46:47;1.70;99.90
27741;DHT22;15134;48.768;9.184;2024-01-10T11:49:15;1.80;99.90
27741;DHT22;15134;48.768;9.184;2024-01-10T11:51:55;2.00;99.90
27741;DHT22;15134;48.768;9.184;2024-01-10T11:57:12;1.60;99.90
27741;DHT22;15134;48.768;9.184;2024-01-10T11:59:42;1.60;99.90
27741;DHT22;15134;48.768;9.184;2024-01-10T12:02:09;1.60;99.90
27741;DHT22;15134;48.768;9.184;2024-01-10T12:04:35;1.60;99.90
27741;DHT22;15134;48.768;9.184;2024-01-10T12:07:05;1.70;99.90
27741;DHT22;15134;48.768;9.184;2024-01-10T12:09:31;1.70;99.90
27741;DHT22;15134;48.768;9.184;2024-01-10T12:11:58;1.80;99.90
27741;DHT22;15134;48.768;9.184;2024-01-10T12:14:24;1.90;99.90
27741;DHT22;15134;48.768;9.184;2024-01-10T12:16:54;1.90;99.90
27741;DHT22;15134;48.768;9.184;2024-01-10T12:19:19;1.80;99.90
27741;DHT22;15134;48.768;9.184;2024-01-10T12:21:45;1.90;99.90
27741;DHT22;15134;48.768;9.184;2024-01-10T12:24:11;1.80;99.90
27741;DHT22;15134;48.768;9.184;2024-01-10T12:26:44;2.00;99.90
27741;DHT22;15134;48.768;9.184;2024-01-10T12:29:10;2.00;99.90
27741;DHT22;15134;48.768;9.184;2024-01-10T12:31:37;2.00;99.90
27741;DHT22;15134;48.768;9.184;2024-01-10T12:34:07;2.00;99.90
27741;DHT22;15134;48.768;9.184;2024-01-10T12:36:34;2.00;99.90
27741;DHT22;15134;48.768;9.184;2024-01-10T12:39:00;1.90;99.90
27741;DHT22;15134;48.768;9.184;2024-01-10T12:41:26;2.00;99.90
27741;DHT22;15134;48.768;9.184;2024-01-10T12:43:53;2.30;99.90
27741;DHT22;15134;48.768;9.184;2024-01-10T12:46:21;2.30;99.90
27741;DHT22;15134;48.768;9.184;2024-01-10T12:49:03;2.20;99.90
27741;DHT22;15134;48.768;9.184;2024-01-10T12:51:31;2.10;99.90
27741;DHT22;15134;48.768;9.184;2024-01-10T12:54:00;2.10;99.90
27741;DHT22;15134;48.768;9.184;2024-01-10T12:56:27;2.20;99.90
27741;DHT22;15134;48.768;9.184;2024-01-10T12:58:53;2.40;99.90
27741;DHT22;15134;48.768;9.184;2024-01-10T13:01:23;2.60;99.90
27741;DHT22;15134;48.768;9.184;2024-01-10T13:03:49;2.70;99.90
27741;DHT22;15134;48.768;9.184;2024-01-10T13:06:15;2.80;99.90
27741;DHT22;15134;48.768;9.184;2024-01-10T13:08:43;2.70;99.90
27741;DHT22;15134;48.768;9.184;2024-01-10T13:11:09;2.80;99.90
27741;DHT22;15134;48.768;9.184;2024-01-10T13:13:35;2.90;99.90
27741;DHT22;15134;48.768;9.184;2024-01-10T13:16:01;3.00;99.90
27741;DHT22;15134;48.768;9.184;2024-01-10T13:18:28;3.10;99.90
27741;DHT22;15134;48.768;9.184;2024-01-10T13:20:57;3.00;99.90
27741;DHT22;15134;48.768;9.184;2024-01-10T13:23:23;2.90;99.90
27741;DHT22;15134;48.768;9.184;2024-01-10T13:25:50;2.90;99.90
27741;DHT22;15134;48.768;9.184;2024-01-10T13:28:17;2.90;99.90
27741;DHT22;15134;48.768;9.184;2024-01-10T13:30:43;2.80;99.90
27741;DHT22;15134;48.768;9.184;2024-01-10T13:33:09;2.80;99.90
27741;DHT22;15134;48.768;9.184;2024-01-10T13:35:38;2.80;99.90
27741;DHT22;15134;48.768;9.184;2024-01-10T13:38:04;2.80;99.90
27741;DHT22;15134;48.768;9.184;2024-01-10T13:40:31;2.70;99.90
27741;DHT22;15134;48.768;9.184;2024-01-10T13:42:59;2.70;99.90
27741;DHT22;15134;48.768;9.184;2024-01-10T13:45:28;2.70;99.90
27741;DHT22;15134;48.768;9.184;2024-01-10T13:47:54;2.70;99.90
27741;DHT22;15134;48.768;9.184;2024-01-10T13:50:20;2.60;99.90
27741;DHT22;15134;48.768;9.184;2024-01-10T13:52:46;2.60;99.90
27741;DHT22;15134;48.768;9.184;2024-01-10T13:55:11;2.50;99.90
27741;DHT22;15134;48.768;9.184;2024-01-10T13:57:38;2.30;99.90
27741;DHT22;15134;48.768;9.184;2024-01-10T14:00:05;2.30;99.90
27741;DHT22;15134;48.768;9.184;2024-01-10T14:02:37;2.30;99.90
27741;DHT22;15134;48.768;9.184;2024-01-10T14:05:03;2.30;99.90
27741;DHT22;15134;48.768;9.184;2024-01-10T14:07:33;2.20;99.90
27741;DHT22;15134;48.768;9.184;2024-01-10T14:09:59;2.10;99.90
27741;DHT22;15134;48.768;9.184;2024-01-10T14:12:27;2.00;99.90
27741;DHT22;15134;48.768;9.184;2024-01-10T14:14:53;2.00;99.90
27741;DHT22;15134;48.768;9.184;2024-01-10T14:17:19;2.00;99.90
27741;DHT22;15134;48.768;9.184;2024-01-10T14:19:45;1.90;99.90
27741;DHT22;15134;48.768;9.184;2024-01-10T14:22:11;1.90;99.90
27741;DHT22;15134;48.768;9.184;2024-01-10T14:24:37;1.80;99.90
27741;DHT22;15134;48.768;9.184;2024-01-10T14:27:04;1.70;99.90
27741;DHT22;15134;48.768;9.184;2024-01-10T14:29:29;1.70;99.90
27741;DHT22;15134;48.768;9.184;2024-01-10T14:31:55;1.70;99.90
27741;DHT22;15134;48.768;9.184;2024-01-10T14:34:21;1.70;99.90
27741;DHT22;15134;48.768;9.184;2024-01-10T14:36:47;1.60;99.90
27741;DHT22;15134;48.768;9.184;2024-01-10T14:39:12;1.60;99.90
27741;DHT22;15134;48.768;9.184;2024-01-10T14:41:39;1.50;99.90
27741;DHT22;15134;48.768;9.184;2024-01-10T14:44:07;1.50;99.90
27741;DHT22;15134;48.768;9.184;2024-01-10T14:46:33;1.50;99.90
27741;DHT22;15134;48.768;9.184;2024-01-10T14:48:59;1.40;99.90
27741;DHT22;15134;48.768;9.184;2024-01-10T14:51:25;1.40;99.90
27741;DHT22;15134;48.768;9.184;2024-01-10T14:53:50;1.40;99.90
27741;DHT22;15134;48.768;9.184;2024-01-10T14:56:17;1.40;99.90
27741;DHT22;15134;48.768;9.184;2024-01-10T14:58:43;1.40;99.90
27741;DHT22;15134;48.768;9.184;2024-01-10T15:01:09;1.30;99.90
27741;DHT22;15134;48.768;9.184;2024-01-10T15:03:36;1.30;99.90
27741;DHT22;15134;48.768;9.184;2024-01-10T15:06:04;1.30;99.90
27741;DHT22;15134;48.768;9.184;2024-01-10T15:08:30;1.40;99.90
27741;DHT22;15134;48.768;9.184;2024-01-10T15:10:56;1.40;99.90
27741;DHT22;15134;48.768;9.184;2024-01-10T15:13:22;1.30;99.90
27741;DHT22;15134;48.768;9.184;2024-01-10T15:15:48;1.30;99.90
27741;DHT22;15134;48.768;9.184;2024-01-10T15:18:14;1.30;99.90
27741;DHT22;15134;48.768;9.184;2024-01-10T15:20:40;1.20;99.90
27741;DHT22;15134;48.768;9.184;2024-01-10T15:23:06;1.20;99.90
27741;DHT22;15134;48.768;9.184;2024-01-10T15:25:32;1.20;99.90
27741;DHT22;15134;48.768;9.184;2024-01-10T15:27:58;1.20;99.90
27741;DHT22;15134;48.768;9.184;2024-01-10T15:30:25;1.20;99.90
27741;DHT22;15134;48.768;9.184;2024-01-10T15:32:52;1.10;99.90
27741;DHT22;15134;48.768;9.184;2024-01-10T15:35:17;1.00;99.90
27741;DHT22;15134;48.768;9.184;2024-01-10T15:37:44;1.00;99.90
27741;DHT22;15134;48.768;9.184;2024-01-10T15:40:11;1.00;99.90
27741;DHT22;15134;48.768;9.184;2024-01-10T15:42:37;1.00;99.90
27741;DHT22;15134;48.768;9.184;2024-01-10T15:45:04;1.00;99.90
27741;DHT22;15134;48.768;9.184;2024-01-10T15:47:31;0.90;99.90
27741;DHT22;15134;48.768;9.184;2024-01-10T15:49:57;0.90;99.90
27741;DHT22;15134;48.768;9.184;2024-01-10T15:52:23;0.90;99.90